createdAt,value
2022-10-17T00:00:05.590Z,100.00
2022-10-17T00:02:54.821Z,100.00
2022-10-17T00:05:21.496Z,100.00
2022-10-17T00:07:47.706Z,100.00
2022-10-17T00:10:14.285Z,100.00
2022-10-17T00:12:40.515Z,100.00
2022-10-17T00:15:07.439Z,100.00
2022-10-17T00:17:33.809Z,100.00
2022-10-17T00:20:01.788Z,100.00
2022-10-17T00:22:28.046Z,100.00
2022-10-17T00:24:54.314Z,100.00
2022-10-17T00:27:20.552Z,100.00
2022-10-17T00:29:51.286Z,100.00
2022-10-17T00:32:18.923Z,100.00
2022-10-17T00:34:45.417Z,100.00
2022-10-17T00:37:11.744Z,100.00
2022-10-17T00:39:38.405Z,100.00
2022-10-17T00:42:04.701Z,100.00
2022-10-17T00:44:30.872Z,100.00
2022-10-17T00:47:00.892Z,100.00
2022-10-17T00:49:31.838Z,100.00
2022-10-17T00:52:01.544Z,100.00
2022-10-17T00:54:36.579Z,100.00
2022-10-17T00:57:03.931Z,100.00
2022-10-17T00:59:33.438Z,100.00
2022-10-17T01:02:07.797Z,100.00
2022-10-17T01:04:36.239Z,100.00
2022-10-17T01:07:02.524Z,100.00
2022-10-17T01:09:29.613Z,100.00
2022-10-17T01:12:06.596Z,100.00
2022-10-17T01:14:49.717Z,100.00
2022-10-17T01:17:33.186Z,100.00
2022-10-17T01:20:15.417Z,100.00
2022-10-17T01:22:49.696Z,100.00
2022-10-17T01:25:47.947Z,100.00
2022-10-17T01:28:39.469Z,100.00
2022-10-17T01:31:08.845Z,100.00
2022-10-17T01:34:02.102Z,100.00
2022-10-17T01:36:44.283Z,100.00
2022-10-17T01:39:31.830Z,100.00
2022-10-17T01:42:05.904Z,100.00
2022-10-17T01:44:58.200Z,100.00
2022-10-17T01:47:30.014Z,100.00
2022-10-17T01:50:06.792Z,100.00
2022-10-17T01:52:40.762Z,100.00
2022-10-17T01:55:12.750Z,100.00
2022-10-17T01:57:48.617Z,100.00
2022-10-17T02:00:22.728Z,100.00
2022-10-17T02:02:58.028Z,100.00
2022-10-17T02:05:27.037Z,100.00
2022-10-17T02:07:53.261Z,100.00
2022-10-17T02:10:39.016Z,100.00
2022-10-17T02:13:26.562Z,100.00
2022-10-17T02:15:59.450Z,100.00
2022-10-17T02:18:41.853Z,100.00
2022-10-17T02:21:18.600Z,100.00
2022-10-17T02:23:54.799Z,100.00
2022-10-17T02:26:32.337Z,100.00
2022-10-17T02:29:14.480Z,100.00
2022-10-17T02:31:51.075Z,100.00
2022-10-17T02:34:27.132Z,100.00
2022-10-17T02:37:00.080Z,100.00
2022-10-17T02:39:28.627Z,100.00
2022-10-17T02:42:01.092Z,100.00
2022-10-17T02:44:30.363Z,100.00
2022-10-17T02:47:38.925Z,100.00
2022-10-17T02:50:06.023Z,100.00
2022-10-17T02:52:55.014Z,100.00
2022-10-17T02:55:31.569Z,100.00
2022-10-17T02:58:16.244Z,100.00
2022-10-17T03:00:43.043Z,100.00
2022-10-17T03:03:30.813Z,100.00
2022-10-17T03:06:00.193Z,100.00
2022-10-17T03:08:26.598Z,100.00
2022-10-17T03:10:52.916Z,100.00
2022-10-17T03:13:21.158Z,100.00
2022-10-17T03:15:47.520Z,100.00
2022-10-17T03:18:13.797Z,100.00
2022-10-17T03:20:40.067Z,100.00
2022-10-17T03:23:06.583Z,100.00
2022-10-17T03:25:32.957Z,100.00
2022-10-17T03:28:00.876Z,100.00
2022-10-17T03:30:28.527Z,100.00
2022-10-17T03:32:57.748Z,100.00
2022-10-17T03:35:25.402Z,100.00
2022-10-17T03:37:52.202Z,100.00
2022-10-17T03:40:19.875Z,100.00
2022-10-17T03:42:46.204Z,100.00
2022-10-17T03:45:13.118Z,100.00
2022-10-17T03:47:39.678Z,100.00
2022-10-17T03:50:07.893Z,100.00
2022-10-17T03:52:35.520Z,100.00
2022-10-17T03:55:02.287Z,100.00
2022-10-17T03:57:29.724Z,100.00
2022-10-17T03:59:56.486Z,100.00
2022-10-17T04:02:24.720Z,100.00
2022-10-17T04:04:51.890Z,100.00
2022-10-17T04:07:18.249Z,100.00
2022-10-17T04:09:44.820Z,100.00
2022-10-17T04:12:14.117Z,100.00
2022-10-17T04:14:40.353Z,100.00
2022-10-17T04:17:06.809Z,100.00
2022-10-17T04:19:33.836Z,100.00
2022-10-17T04:22:02.471Z,100.00
2022-10-17T04:24:29.383Z,100.00
2022-10-17T04:27:18.846Z,100.00
2022-10-17T04:29:45.656Z,100.00
2022-10-17T04:32:24.984Z,100.00
2022-10-17T04:35:01.396Z,100.00
2022-10-17T04:37:29.502Z,100.00
2022-10-17T04:39:56.077Z,100.00
2022-10-17T04:42:22.765Z,100.00
2022-10-17T04:44:51.670Z,100.00
2022-10-17T04:47:18.256Z,100.00
2022-10-17T04:49:44.488Z,100.00
2022-10-17T04:52:10.885Z,100.00
2022-10-17T04:54:40.111Z,100.00
2022-10-17T04:57:08.739Z,100.00
2022-10-17T04:59:35.107Z,100.00
2022-10-17T05:02:17.354Z,100.00
2022-10-17T05:04:44.994Z,100.00
2022-10-17T05:07:11.941Z,100.00
2022-10-17T05:09:41.046Z,100.00
2022-10-17T05:12:10.310Z,100.00
2022-10-17T05:14:38.503Z,100.00
2022-10-17T05:17:04.775Z,100.00
2022-10-17T05:19:31.095Z,100.00
2022-10-17T05:21:57.624Z,100.00
2022-10-17T05:24:23.895Z,100.00
2022-10-17T05:26:51.232Z,100.00
2022-10-17T05:29:17.904Z,100.00
2022-10-17T05:31:48.151Z,100.00
2022-10-17T05:34:14.465Z,100.00
2022-10-17T05:36:41.165Z,100.00
2022-10-17T05:39:08.222Z,100.00
2022-10-17T05:41:35.602Z,100.00
2022-10-17T05:44:04.764Z,100.00
2022-10-17T05:46:39.395Z,100.00
2022-10-17T05:49:15.056Z,100.00
2022-10-17T05:51:53.219Z,100.00
2022-10-17T05:54:20.159Z,100.00
2022-10-17T05:56:54.437Z,100.00
2022-10-17T05:59:24.527Z,100.00
2022-10-17T06:01:57.796Z,100.00
2022-10-17T06:04:27.039Z,100.00
2022-10-17T06:06:55.497Z,100.00
2022-10-17T06:09:22.975Z,100.00
2022-10-17T06:11:51.668Z,100.00
2022-10-17T06:14:17.890Z,100.00
2022-10-17T06:16:44.148Z,100.00
2022-10-17T06:19:10.833Z,100.00
2022-10-17T06:21:38.222Z,100.00
2022-10-17T06:24:09.840Z,100.00
2022-10-17T06:26:39.348Z,100.00
2022-10-17T06:29:11.378Z,100.00
2022-10-17T06:31:50.168Z,100.00
2022-10-17T06:34:21.125Z,100.00
2022-10-17T06:36:53.949Z,100.00
2022-10-17T06:39:21.060Z,100.00
2022-10-17T06:41:56.456Z,100.00
2022-10-17T06:44:40.885Z,100.00
2022-10-17T06:47:33.628Z,100.00
2022-10-17T06:50:06.284Z,100.00
2022-10-17T06:52:51.237Z,100.00
2022-10-17T06:55:37.533Z,100.00
2022-10-17T06:58:17.344Z,100.00
2022-10-17T07:03:36.111Z,100.00
2022-10-17T07:06:07.068Z,100.00
2022-10-17T07:08:33.506Z,100.00
2022-10-17T07:11:13.963Z,100.00
2022-10-17T07:13:46.179Z,100.00
2022-10-17T07:16:16.577Z,100.00
2022-10-17T07:18:58.652Z,100.00
2022-10-17T07:21:35.196Z,100.00
2022-10-17T07:24:09.310Z,100.00
2022-10-17T07:26:43.331Z,100.00
2022-10-17T07:29:12.185Z,100.00
2022-10-17T07:31:48.230Z,100.00
2022-10-17T07:34:15.918Z,100.00
2022-10-17T07:36:45.344Z,100.00
2022-10-17T07:39:13.219Z,100.00
2022-10-17T07:41:40.023Z,100.00
2022-10-17T07:44:06.831Z,100.00
2022-10-17T07:46:45.635Z,100.00
2022-10-17T07:49:11.953Z,100.00
2022-10-17T07:51:39.759Z,100.00
2022-10-17T07:54:06.112Z,100.00
2022-10-17T07:56:32.609Z,100.00
2022-10-17T07:59:00.705Z,100.00
2022-10-17T08:01:29.421Z,100.00
2022-10-17T08:03:55.717Z,100.00
2022-10-17T08:06:21.942Z,100.00
2022-10-17T08:08:48.335Z,100.00
2022-10-17T08:11:15.296Z,100.00
2022-10-17T08:13:42.057Z,100.00
2022-10-17T08:16:11.428Z,100.00
2022-10-17T08:18:39.946Z,100.00
2022-10-17T08:21:07.672Z,100.00
2022-10-17T08:23:35.999Z,100.00
2022-10-17T08:26:05.221Z,100.00
2022-10-17T08:28:35.443Z,100.00
2022-10-17T08:31:08.250Z,100.00
2022-10-17T08:33:34.712Z,100.00
2022-10-17T08:36:01.977Z,100.00
2022-10-17T08:38:33.230Z,100.00
2022-10-17T08:41:05.993Z,100.00
2022-10-17T08:43:54.372Z,100.00
2022-10-17T08:46:21.109Z,100.00
2022-10-17T08:48:50.569Z,100.00
2022-10-17T08:51:23.740Z,100.00
2022-10-17T08:53:52.856Z,100.00
2022-10-17T08:56:43.948Z,100.00
2022-10-17T08:59:15.316Z,100.00
2022-10-17T09:01:44.971Z,100.00
2022-10-17T09:04:20.224Z,100.00
2022-10-17T09:06:55.400Z,100.00
2022-10-17T09:09:34.532Z,100.00
2022-10-17T09:12:13.101Z,100.00
2022-10-17T09:14:47.800Z,100.00
2022-10-17T09:17:32.833Z,100.00
2022-10-17T09:20:10.904Z,100.00
2022-10-17T09:22:44.222Z,100.00
2022-10-17T09:25:14.514Z,100.00
2022-10-17T09:27:45.805Z,100.00
2022-10-17T09:30:45.506Z,100.00
2022-10-17T09:33:42.361Z,100.00
2022-10-17T09:36:15.803Z,100.00
2022-10-17T09:38:47.147Z,100.00
2022-10-17T09:41:43.142Z,100.00
2022-10-17T09:44:19.563Z,100.00
2022-10-17T09:47:14.511Z,100.00
2022-10-17T09:49:43.748Z,100.00
2022-10-17T09:52:15.061Z,100.00
2022-10-17T09:54:57.696Z,100.00
2022-10-17T09:57:24.780Z,100.00
2022-10-17T10:00:07.493Z,100.00
2022-10-17T10:02:49.857Z,100.00
2022-10-17T10:05:19.295Z,100.00
2022-10-17T10:08:02.701Z,100.00
2022-10-17T10:10:31.002Z,100.00
2022-10-17T10:13:13.212Z,100.00
2022-10-17T10:15:42.076Z,100.00
2022-10-17T10:21:08.905Z,99.98
2022-10-17T10:23:39.316Z,99.99
2022-10-17T10:26:21.067Z,100.00
2022-10-17T10:28:55.130Z,99.56
2022-10-17T10:31:27.741Z,99.87
2022-10-17T10:33:56.864Z,99.77
2022-10-17T10:36:24.049Z,100.00
2022-10-17T10:38:58.318Z,99.65
2022-10-17T10:41:27.190Z,99.02
2022-10-17T10:43:55.472Z,99.29
2022-10-17T10:46:26.004Z,98.41
2022-10-17T10:49:01.003Z,98.46
2022-10-17T10:51:38.405Z,98.21
2022-10-17T10:54:10.162Z,97.95
2022-10-17T10:56:39.781Z,98.07
2022-10-17T10:59:19.864Z,98.13
2022-10-17T11:01:55.910Z,97.56
2022-10-17T11:04:46.793Z,97.41
2022-10-17T11:07:29.543Z,96.93
2022-10-17T11:09:55.939Z,96.74
2022-10-17T11:12:28.201Z,97.12
2022-10-17T11:15:01.769Z,96.28
2022-10-17T11:18:00.147Z,96.14
2022-10-17T11:20:58.377Z,95.09
2022-10-17T11:24:08.446Z,93.71
2022-10-17T11:26:42.764Z,93.19
2022-10-17T11:29:11.732Z,92.50
2022-10-17T11:31:44.501Z,91.77
2022-10-17T11:34:28.764Z,92.02
2022-10-17T11:37:03.794Z,90.18
2022-10-17T11:39:33.101Z,90.83
2022-10-17T11:42:06.425Z,91.14
2022-10-17T11:44:38.754Z,91.15
2022-10-17T11:47:26.996Z,90.63
2022-10-17T11:53:01.510Z,88.45
2022-10-17T11:55:30.042Z,88.84
2022-10-17T11:58:03.151Z,88.74
2022-10-17T12:00:47.553Z,89.08
2022-10-17T12:03:34.300Z,87.77
2022-10-17T12:06:20.001Z,87.77
2022-10-17T12:08:55.507Z,86.97
2022-10-17T12:11:42.697Z,87.58
2022-10-17T12:14:38.895Z,86.60
2022-10-17T12:17:20.303Z,85.85
2022-10-17T12:19:46.606Z,85.35
2022-10-17T12:22:28.870Z,85.98
2022-10-17T12:24:58.125Z,85.44
2022-10-17T12:27:45.636Z,84.20
2022-10-17T12:30:12.005Z,84.05
2022-10-17T12:33:05.743Z,83.64
2022-10-17T12:35:35.148Z,82.66
2022-10-17T12:38:09.542Z,82.10
2022-10-17T12:40:35.752Z,82.21
2022-10-17T12:43:27.772Z,81.93
2022-10-17T12:45:55.779Z,81.90
2022-10-17T12:48:38.602Z,81.50
2022-10-17T12:51:34.031Z,80.46
2022-10-17T12:54:01.452Z,80.84
2022-10-17T12:56:39.283Z,80.37
2022-10-17T12:59:13.012Z,80.32
2022-10-17T13:01:42.981Z,79.40
2022-10-17T13:04:10.214Z,78.73
2022-10-17T13:06:44.319Z,78.47
2022-10-17T13:09:31.460Z,78.98
2022-10-17T13:12:04.923Z,78.61
2022-10-17T13:14:33.226Z,78.29
2022-10-17T13:17:05.197Z,78.09
2022-10-17T13:19:41.790Z,78.25
2022-10-17T13:22:23.405Z,77.51
2022-10-17T13:24:51.710Z,77.15
2022-10-17T13:27:28.831Z,77.56
2022-10-17T13:29:57.851Z,77.22
2022-10-17T13:32:27.176Z,77.40
2022-10-17T13:35:14.136Z,77.06
2022-10-17T13:37:43.077Z,77.10
2022-10-17T13:40:44.730Z,76.74
2022-10-17T13:43:19.925Z,76.32
2022-10-17T13:45:49.693Z,76.44
2022-10-17T13:48:27.728Z,76.48
2022-10-17T13:51:01.752Z,76.47
2022-10-17T13:53:33.411Z,76.23
2022-10-17T13:56:26.459Z,76.25
2022-10-17T13:58:52.143Z,76.23
2022-10-17T14:01:20.532Z,76.33
2022-10-17T14:03:50.173Z,76.29
2022-10-17T14:06:26.212Z,76.25
2022-10-17T14:09:04.658Z,76.10
2022-10-17T14:11:37.186Z,75.73
2022-10-17T14:14:07.848Z,75.63
2022-10-17T14:16:40.830Z,75.51
2022-10-17T14:19:39.723Z,75.76
2022-10-17T14:22:22.237Z,75.51
2022-10-17T14:24:52.481Z,75.35
2022-10-17T14:27:38.547Z,75.36
2022-10-17T14:33:26.363Z,75.09
2022-10-17T14:35:56.514Z,74.97
2022-10-17T14:38:24.421Z,75.15
2022-10-17T14:41:15.672Z,75.03
2022-10-17T14:44:05.803Z,75.18
2022-10-17T14:46:35.013Z,75.12
2022-10-17T14:49:15.014Z,75.14
2022-10-17T14:52:29.210Z,75.44
2022-10-17T14:54:57.785Z,75.33
2022-10-17T14:57:28.704Z,75.09
2022-10-17T14:59:56.527Z,74.97
2022-10-17T15:02:28.573Z,75.03
2022-10-17T15:04:55.352Z,75.13
2022-10-17T15:07:22.861Z,75.18
2022-10-17T15:09:50.891Z,75.25
2022-10-17T15:12:24.008Z,75.36
2022-10-17T15:14:51.046Z,75.55
2022-10-17T15:17:25.085Z,75.76
2022-10-17T15:19:51.875Z,75.98
2022-10-17T15:22:18.148Z,76.15
2022-10-17T15:24:45.584Z,76.29
2022-10-17T15:27:24.350Z,76.19
2022-10-17T15:29:52.170Z,76.32
2022-10-17T15:32:18.418Z,76.45
2022-10-17T15:34:44.771Z,76.53
2022-10-17T15:37:32.830Z,76.73
2022-10-17T15:39:59.480Z,76.97
2022-10-17T15:42:28.925Z,77.03
2022-10-17T15:44:56.455Z,77.10
2022-10-17T15:47:32.885Z,77.24
2022-10-17T15:50:00.636Z,77.45
2022-10-17T15:52:27.052Z,77.53
2022-10-17T15:54:54.080Z,77.72
2022-10-17T15:57:23.988Z,77.86
2022-10-17T15:59:52.347Z,78.03
2022-10-17T16:02:20.553Z,78.20
2022-10-17T16:04:48.522Z,78.24
2022-10-17T16:07:15.377Z,78.57
2022-10-17T16:09:41.665Z,78.54
2022-10-17T16:12:17.264Z,78.56
2022-10-17T16:14:43.850Z,78.88
2022-10-17T16:17:15.573Z,78.79
2022-10-17T16:19:42.555Z,79.14
2022-10-17T16:22:36.051Z,79.21
2022-10-17T16:25:09.445Z,79.44
2022-10-17T16:27:36.502Z,79.55
2022-10-17T16:30:07.662Z,79.85
2022-10-17T16:32:33.932Z,79.71
2022-10-17T16:35:00.804Z,79.91
2022-10-17T16:37:27.174Z,80.08
2022-10-17T16:39:53.492Z,80.07
2022-10-17T16:42:20.551Z,80.19
2022-10-17T16:44:48.516Z,80.27
2022-10-17T16:47:16.633Z,80.56
2022-10-17T16:49:45.264Z,80.48
2022-10-17T16:52:12.406Z,80.67
2022-10-17T16:54:38.683Z,80.72
2022-10-17T16:57:04.933Z,80.89
2022-10-17T16:59:31.158Z,80.97
2022-10-17T17:01:57.399Z,80.99
2022-10-17T17:04:23.805Z,81.28
2022-10-17T17:06:50.110Z,81.28
2022-10-17T17:09:16.381Z,81.41
2022-10-17T17:11:42.618Z,81.39
2022-10-17T17:14:10.328Z,81.66
2022-10-17T17:16:36.563Z,82.06
2022-10-17T17:19:05.689Z,82.26
2022-10-17T17:21:33.894Z,82.31
2022-10-17T17:24:02.033Z,82.41
2022-10-17T17:26:31.162Z,82.28
2022-10-17T17:28:59.698Z,82.60
2022-10-17T17:31:29.368Z,82.79
2022-10-17T17:36:25.699Z,82.81
2022-10-17T17:38:54.862Z,83.17
2022-10-17T17:41:21.519Z,83.23
2022-10-17T17:43:48.503Z,83.51
2022-10-17T17:46:17.363Z,83.34
2022-10-17T17:48:45.330Z,83.46
2022-10-17T17:51:13.580Z,83.90
2022-10-17T17:53:40.425Z,83.91
2022-10-17T17:56:10.056Z,83.93
2022-10-17T17:58:36.713Z,84.15
2022-10-17T18:01:13.199Z,84.25
2022-10-17T18:03:41.279Z,84.75
2022-10-17T18:06:08.610Z,84.43
2022-10-17T18:08:35.427Z,84.32
2022-10-17T18:11:02.453Z,84.73
2022-10-17T18:13:29.347Z,84.95
2022-10-17T18:16:00.530Z,85.41
2022-10-17T18:18:28.744Z,85.18
2022-10-17T18:20:55.830Z,85.83
2022-10-17T18:23:23.015Z,85.68
2022-10-17T18:25:54.061Z,85.61
2022-10-17T18:28:20.383Z,85.83
2022-10-17T18:30:46.748Z,85.73
2022-10-17T18:33:12.975Z,86.07
2022-10-17T18:35:39.190Z,86.20
2022-10-17T18:38:05.431Z,86.50
2022-10-17T18:40:31.785Z,86.40
2022-10-17T18:42:58.009Z,86.51
2022-10-17T18:45:24.320Z,86.56
2022-10-17T18:47:52.998Z,86.43
2022-10-17T18:50:20.860Z,86.95
2022-10-17T18:52:48.110Z,86.80
2022-10-17T18:55:17.638Z,86.86
2022-10-17T18:57:43.882Z,87.14
2022-10-17T19:00:10.745Z,87.23
2022-10-17T19:02:38.086Z,86.98
2022-10-17T19:05:04.726Z,87.17
2022-10-17T19:07:31.243Z,87.16
2022-10-17T19:09:57.689Z,87.24
2022-10-17T19:12:23.919Z,87.59
2022-10-17T19:14:50.528Z,88.02
2022-10-17T19:17:16.776Z,87.89
2022-10-17T19:19:43.323Z,87.92
2022-10-17T19:22:09.606Z,87.88
2022-10-17T19:24:35.884Z,88.27
2022-10-17T19:27:03.299Z,88.19
2022-10-17T19:29:32.971Z,88.15
2022-10-17T19:32:00.317Z,88.36
2022-10-17T19:34:27.106Z,88.30
2022-10-17T19:36:55.006Z,88.60
2022-10-17T19:39:24.377Z,88.81
2022-10-17T19:41:50.676Z,88.85
2022-10-17T19:44:17.564Z,88.68
2022-10-17T19:46:46.026Z,88.55
2022-10-17T19:49:12.640Z,88.63
2022-10-17T19:51:39.305Z,88.79
2022-10-17T19:54:05.565Z,89.11
2022-10-17T19:56:36.819Z,89.02
2022-10-17T19:59:05.379Z,89.04
2022-10-17T20:01:34.584Z,89.08
2022-10-17T20:04:01.239Z,89.35
2022-10-17T20:06:27.687Z,89.20
2022-10-17T20:08:54.160Z,89.23
2022-10-17T20:11:26.140Z,89.32
2022-10-17T20:13:54.280Z,89.41
2022-10-17T20:16:23.905Z,89.23
2022-10-17T20:18:51.748Z,89.51
2022-10-17T20:21:26.396Z,89.54
2022-10-17T20:23:53.758Z,89.64
2022-10-17T20:26:37.750Z,89.68
2022-10-17T20:29:09.847Z,90.05
2022-10-17T20:31:36.513Z,89.95
2022-10-17T20:34:03.355Z,90.11
2022-10-17T20:36:29.983Z,90.06
2022-10-17T20:38:58.053Z,90.01
2022-10-17T20:41:26.126Z,90.01
2022-10-17T20:43:54.379Z,90.06
2022-10-17T20:46:35.815Z,90.11
2022-10-17T20:49:04.891Z,90.13
2022-10-17T20:51:31.624Z,90.19
2022-10-17T20:53:58.296Z,90.15
2022-10-17T20:56:28.666Z,90.11
2022-10-17T20:59:00.927Z,90.15
2022-10-17T21:01:29.128Z,90.30
2022-10-17T21:03:58.889Z,90.19
2022-10-17T21:06:27.060Z,90.21
2022-10-17T21:08:54.854Z,90.23
2022-10-17T21:11:23.844Z,90.16
2022-10-17T21:13:55.872Z,90.40
2022-10-17T21:16:22.292Z,90.38
2022-10-17T21:18:49.104Z,90.33
2022-10-17T21:21:18.577Z,90.35
2022-10-17T21:23:47.416Z,90.34
2022-10-17T21:26:15.369Z,90.42
2022-10-17T21:28:43.203Z,90.47
2022-10-17T21:31:17.352Z,90.39
2022-10-17T21:33:47.765Z,90.47
2022-10-17T21:36:17.996Z,90.40
2022-10-17T21:38:46.484Z,90.34
2022-10-17T21:41:14.575Z,90.59
2022-10-17T21:43:42.497Z,90.54
2022-10-17T21:46:15.340Z,90.70
2022-10-17T21:48:42.244Z,90.78
2022-10-17T21:51:11.912Z,90.80
2022-10-17T21:53:38.646Z,90.88
2022-10-17T21:56:08.514Z,90.86
2022-10-17T21:58:34.744Z,90.83
2022-10-17T22:01:18.881Z,90.77
2022-10-17T22:03:47.754Z,90.83
2022-10-17T22:09:05.202Z,90.91
2022-10-17T22:11:34.314Z,90.80
2022-10-17T22:14:11.192Z,90.79
2022-10-17T22:16:38.662Z,90.96
2022-10-17T22:19:06.839Z,90.89
2022-10-17T22:21:35.557Z,90.88
2022-10-17T22:24:05.350Z,90.91
2022-10-17T22:26:34.187Z,90.97
2022-10-17T22:29:01.310Z,90.89
2022-10-17T22:31:27.699Z,90.82
2022-10-17T22:33:54.814Z,90.89
2022-10-17T22:36:21.072Z,90.88
2022-10-17T22:38:47.660Z,90.90
2022-10-17T22:41:13.911Z,90.93
2022-10-17T22:43:40.157Z,90.87
2022-10-17T22:46:06.984Z,90.95
2022-10-17T22:48:34.175Z,90.87
2022-10-17T22:51:01.857Z,90.85
2022-10-17T22:53:29.067Z,90.93
2022-10-17T22:56:00.701Z,90.89
2022-10-17T22:58:28.871Z,91.09
2022-10-17T23:00:55.713Z,90.97
2022-10-17T23:03:23.494Z,90.97
2022-10-17T23:05:50.657Z,90.94
2022-10-17T23:08:17.572Z,90.98
2022-10-17T23:10:45.471Z,91.05
2022-10-17T23:13:12.095Z,91.17
2022-10-17T23:15:38.351Z,90.99
2022-10-17T23:18:05.049Z,91.08
2022-10-17T23:20:31.889Z,91.16
2022-10-17T23:22:58.561Z,91.21
2022-10-17T23:25:26.108Z,91.04
2022-10-17T23:27:52.384Z,91.14
2022-10-17T23:30:19.010Z,91.18
2022-10-17T23:32:45.323Z,91.13
2022-10-17T23:35:11.569Z,91.14
2022-10-17T23:37:37.861Z,91.16
2022-10-17T23:40:05.433Z,91.20
2022-10-17T23:42:32.030Z,91.11
2022-10-17T23:44:58.243Z,91.19
2022-10-17T23:47:24.505Z,91.23
2022-10-17T23:49:50.804Z,91.16
2022-10-17T23:52:17.038Z,91.17
2022-10-17T23:54:43.498Z,91.22
2022-10-17T23:57:09.710Z,91.22
2022-10-17T23:59:36.250Z,91.21
